Terminal Aerodrome Forecast
Issued by NWS Pocatello, ID

Home | Current Version | Previous Version | Text Only | Print | Product List | Glossary On
Versions: 1 2 3 4 5 6 7 8 9 10 11 12 13 14 15 16 17 18 19 20 21 22 23 24
683
FTUS45 KPIH 211120
TAFIDA
TAF
KIDA 211120Z 2112/2212 VRB05KT P6SM SCT100 BKN140
     FM211900 21009KT P6SM SCT040 BKN100 OVC120
     FM220300 VRB05KT P6SM SCT040 OVC100=

USA.gov is the U.S. government's official web portal to all federal, state and local government web resources and services.